createdAt,value
2022-09-24T00:00:11.688Z,3.60
2022-09-24T00:04:13.462Z,4.15
2022-09-24T00:08:16.907Z,3.83
2022-09-24T00:12:18.787Z,3.62
2022-09-24T00:16:22.984Z,3.35
2022-09-24T00:20:24.674Z,4.15
2022-09-24T00:24:44.973Z,4.15
2022-09-24T00:28:50.073Z,3.67
2022-09-24T00:32:51.679Z,3.90
2022-09-24T00:36:53.384Z,3.78
2022-09-24T00:40:55.114Z,3.80
2022-09-24T00:44:57.635Z,4.15
2022-09-24T00:49:05.703Z,3.85
2022-09-24T00:53:21.723Z,4.03
2022-09-24T00:57:24.051Z,4.72
2022-09-24T01:01:25.795Z,4.03
2022-09-24T01:05:27.642Z,4.07
2022-09-24T01:09:29.573Z,4.07
2022-09-24T01:13:49.467Z,4.00
2022-09-24T01:17:56.474Z,4.25
2022-09-24T01:22:19.127Z,4.22
2022-09-24T01:26:37.063Z,4.03
2022-09-24T01:30:42.402Z,3.72
2022-09-24T01:34:52.336Z,4.57
2022-09-24T01:38:55.203Z,4.87
2022-09-24T01:42:59.780Z,4.80
2022-09-24T01:47:04.247Z,4.55
2022-09-24T01:51:24.207Z,4.55
2022-09-24T01:55:29.896Z,5.07
2022-09-24T01:59:47.960Z,5.10
2022-09-24T02:03:56.913Z,4.68
2022-09-24T02:08:06.256Z,4.72
2022-09-24T02:12:29.525Z,5.03
2022-09-24T02:16:36.078Z,5.05
2022-09-24T02:20:41.264Z,5.53
2022-09-24T02:24:50.285Z,5.72
2022-09-24T02:28:52.917Z,4.90
2022-09-24T02:32:55.873Z,5.05
2022-09-24T02:37:06.640Z,6.12
2022-09-24T02:41:08.532Z,5.20
2022-09-24T02:45:11.288Z,7.43
2022-09-24T02:49:14.297Z,6.82
2022-09-24T02:53:15.945Z,6.05
2022-09-24T02:57:18.487Z,5.68
2022-09-24T03:01:20.481Z,6.20
2022-09-24T03:05:22.136Z,7.32
2022-09-24T03:09:23.759Z,6.20
2022-09-24T03:13:25.352Z,6.82
2022-09-24T03:17:28.232Z,6.80
2022-09-24T03:21:30.165Z,6.70
2022-09-24T03:25:31.823Z,7.80
2022-09-24T03:29:52.379Z,7.55
2022-09-24T03:33:54.384Z,7.60
2022-09-24T03:37:56.075Z,7.00
2022-09-24T03:41:57.704Z,6.15
2022-09-24T03:45:59.666Z,6.30
2022-09-24T03:50:02.452Z,6.60
2022-09-24T03:54:04.097Z,6.57
2022-09-24T03:58:05.715Z,7.47
2022-09-24T04:02:07.636Z,6.60
2022-09-24T04:06:09.355Z,7.43
2022-09-24T04:10:11.640Z,6.57
2022-09-24T04:14:13.664Z,6.50
2022-09-24T04:18:15.441Z,6.57
2022-09-24T04:22:17.051Z,7.10
2022-09-24T04:26:18.735Z,7.37
2022-09-24T04:30:20.504Z,7.47
2022-09-24T04:34:22.181Z,8.00
2022-09-24T04:38:23.837Z,7.78
2022-09-24T04:42:25.448Z,7.75
2022-09-24T04:46:27.139Z,8.13
2022-09-24T04:50:33.039Z,8.20
2022-09-24T04:54:34.677Z,6.87
2022-09-24T04:58:36.519Z,7.47
2022-09-24T05:02:38.185Z,8.50
2022-09-24T05:06:39.911Z,7.68
2022-09-24T05:10:41.587Z,8.75
2022-09-24T05:14:43.171Z,9.88
2022-09-24T05:18:44.764Z,11.57
2022-09-24T05:22:49.378Z,11.70
2022-09-24T05:27:09.958Z,11.90
2022-09-24T05:31:11.751Z,11.90
2022-09-24T05:35:13.669Z,12.02
2022-09-24T05:39:15.312Z,11.95
2022-09-24T05:43:19.202Z,11.00
2022-09-24T05:47:20.815Z,10.52
2022-09-24T05:51:22.667Z,9.68
2022-09-24T05:55:26.721Z,10.38
2022-09-24T05:59:32.179Z,9.50
2022-09-24T06:03:33.838Z,10.02
2022-09-24T06:07:35.476Z,10.32
2022-09-24T06:11:40.454Z,10.70
2022-09-24T06:15:42.987Z,10.55
2022-09-24T06:19:44.601Z,10.25
2022-09-24T06:23:46.443Z,10.38
2022-09-24T06:28:03.266Z,10.43
2022-09-24T06:32:04.995Z,10.60
2022-09-24T06:36:07.046Z,9.80
2022-09-24T06:40:09.570Z,10.00
2022-09-24T06:44:11.304Z,10.15
2022-09-24T06:48:14.383Z,10.32
2022-09-24T06:52:16.635Z,9.95
2022-09-24T06:56:18.317Z,10.38
2022-09-24T07:00:20.054Z,10.93
2022-09-24T07:04:21.734Z,10.35
2022-09-24T07:08:23.394Z,11.02
2022-09-24T07:12:25.100Z,10.57
2022-09-24T07:16:26.811Z,10.50
2022-09-24T07:20:28.714Z,10.23
2022-09-24T07:24:30.372Z,10.48
2022-09-24T07:28:32.052Z,10.32
2022-09-24T07:32:33.692Z,11.55
2022-09-24T07:36:35.415Z,10.82
2022-09-24T07:40:37.158Z,10.20
2022-09-24T07:44:38.852Z,10.63
2022-09-24T07:48:40.498Z,10.90
2022-09-24T07:52:42.131Z,11.85
2022-09-24T07:56:43.750Z,11.10
2022-09-24T08:00:45.538Z,11.35
2022-09-24T08:04:48.191Z,11.75
2022-09-24T08:08:50.831Z,11.70
2022-09-24T08:12:52.710Z,12.18
2022-09-24T08:16:54.324Z,10.65
2022-09-24T08:20:55.930Z,12.23
2022-09-24T08:24:57.861Z,12.25
2022-09-24T08:28:59.509Z,11.80
2022-09-24T08:33:01.464Z,11.70
2022-09-24T08:37:03.912Z,11.88
2022-09-24T08:41:21.127Z,13.60
2022-09-24T08:45:41.260Z,12.20
2022-09-24T08:49:49.836Z,12.05
2022-09-24T08:53:57.985Z,11.77
2022-09-24T08:58:08.587Z,12.27
2022-09-24T09:02:35.712Z,11.98
2022-09-24T09:07:02.044Z,12.73
2022-09-24T09:11:07.760Z,11.68
2022-09-24T09:15:15.381Z,10.82
2022-09-24T09:19:18.920Z,11.45
2022-09-24T09:23:36.691Z,10.88
2022-09-24T09:27:38.375Z,11.55
2022-09-24T09:32:16.832Z,11.45
2022-09-24T09:36:45.546Z,11.40
2022-09-24T09:40:57.675Z,12.65
2022-09-24T09:45:15.132Z,11.95
2022-09-24T09:49:18.152Z,11.77
2022-09-24T09:53:21.110Z,12.98
2022-09-24T09:57:24.993Z,12.30
2022-09-24T10:01:33.005Z,11.35
2022-09-24T10:05:35.097Z,10.80
2022-09-24T10:09:38.352Z,10.05
2022-09-24T10:13:40.016Z,9.68
2022-09-24T10:17:42.926Z,8.90
2022-09-24T10:21:44.820Z,8.23
2022-09-24T10:25:59.427Z,8.30
2022-09-24T10:30:23.558Z,6.75
2022-09-24T10:34:27.103Z,6.30
2022-09-24T10:38:30.007Z,6.53
2022-09-24T10:42:31.686Z,6.78
2022-09-24T10:46:54.423Z,7.32
2022-09-24T10:51:11.652Z,6.87
2022-09-24T10:55:54.027Z,7.53
2022-09-24T11:00:23.098Z,7.95
2022-09-24T11:04:50.707Z,7.00
2022-09-24T11:09:07.960Z,8.00
2022-09-24T11:13:30.639Z,8.25
2022-09-24T11:18:00.445Z,7.45
2022-09-24T11:22:14.063Z,8.13
2022-09-24T11:26:40.030Z,9.38
2022-09-24T11:30:56.305Z,8.05
2022-09-24T11:35:35.932Z,7.62
2022-09-24T11:39:55.935Z,9.27
2022-09-24T11:44:11.194Z,9.68
2022-09-24T11:48:16.179Z,9.63
2022-09-24T11:52:43.751Z,8.60
2022-09-24T11:56:50.111Z,8.77
2022-09-24T12:00:59.227Z,7.97
2022-09-24T12:05:05.400Z,7.28
2022-09-24T12:09:23.767Z,7.22
2022-09-24T12:13:32.909Z,6.68
2022-09-24T12:17:44.575Z,6.87
2022-09-24T12:21:49.043Z,6.25
2022-09-24T12:25:53.211Z,6.62
2022-09-24T12:30:36.597Z,6.60
2022-09-24T12:34:49.274Z,6.55
2022-09-24T12:39:06.678Z,6.25
2022-09-24T12:43:26.048Z,6.32
2022-09-24T12:47:31.622Z,6.72
2022-09-24T12:51:38.278Z,6.50
2022-09-24T12:55:45.628Z,6.37
2022-09-24T13:08:41.108Z,6.78
2022-09-24T13:12:44.560Z,6.95
2022-09-24T13:16:53.210Z,7.07
2022-09-24T13:21:01.458Z,6.75
2022-09-24T13:25:09.255Z,6.60
2022-09-24T13:29:25.411Z,7.10
2022-09-24T13:33:29.470Z,7.03
2022-09-24T13:37:41.235Z,7.55
2022-09-24T13:42:03.321Z,7.45
2022-09-24T13:46:15.157Z,7.25
2022-09-24T13:50:29.023Z,7.75
2022-09-24T13:54:36.645Z,6.80
2022-09-24T13:58:39.413Z,8.02
2022-09-24T14:02:43.327Z,7.47
2022-09-24T14:06:54.417Z,7.53
2022-09-24T14:11:11.692Z,7.75
2022-09-24T14:15:15.931Z,8.15
2022-09-24T14:19:17.713Z,8.35
2022-09-24T14:23:24.329Z,8.50
2022-09-24T14:27:28.058Z,9.75
2022-09-24T14:31:30.305Z,9.80
2022-09-24T14:35:37.750Z,9.07
2022-09-24T14:43:50.159Z,8.10
2022-09-24T14:48:06.327Z,8.63
2022-09-24T14:52:32.171Z,8.65
2022-09-24T14:56:34.858Z,8.35
2022-09-24T15:00:47.519Z,7.78
2022-09-24T15:04:53.461Z,8.00
2022-09-24T15:09:19.897Z,8.65
2022-09-24T15:13:28.246Z,8.65
2022-09-24T15:17:32.286Z,8.55
2022-09-24T15:21:34.728Z,8.15
2022-09-24T15:25:36.625Z,7.37
2022-09-24T15:29:38.285Z,7.55
2022-09-24T15:33:39.904Z,8.30
2022-09-24T15:37:42.157Z,6.87
2022-09-24T15:41:43.830Z,7.22
2022-09-24T15:45:45.487Z,7.40
2022-09-24T15:49:47.374Z,7.93
2022-09-24T15:53:50.123Z,7.87
2022-09-24T15:57:51.873Z,8.35
2022-09-24T16:01:57.626Z,8.38
2022-09-24T16:06:00.440Z,8.70
2022-09-24T16:10:02.110Z,9.10
2022-09-24T16:14:03.849Z,8.05
2022-09-24T16:18:06.704Z,7.87
2022-09-24T16:22:08.373Z,8.65
2022-09-24T16:26:10.221Z,7.87
2022-09-24T16:30:12.007Z,9.57
2022-09-24T16:34:13.842Z,8.20
2022-09-24T16:38:21.654Z,10.05
2022-09-24T16:42:26.224Z,10.02
2022-09-24T16:46:28.040Z,10.13
2022-09-24T16:50:29.708Z,8.73
2022-09-24T16:54:32.709Z,9.70
2022-09-24T16:58:35.011Z,10.75
2022-09-24T17:02:37.105Z,9.80
2022-09-24T17:06:40.167Z,9.70
2022-09-24T17:10:53.902Z,11.23
2022-09-24T17:15:01.829Z,10.10
2022-09-24T17:19:03.674Z,10.32
2022-09-24T17:23:06.086Z,10.75
2022-09-24T17:27:08.228Z,10.35
2022-09-24T17:31:11.500Z,11.18
2022-09-24T17:35:14.678Z,12.25
2022-09-24T17:39:16.442Z,13.15
2022-09-24T17:43:18.080Z,13.38
2022-09-24T17:47:19.715Z,14.20
2022-09-24T17:51:25.724Z,14.82
2022-09-24T17:55:27.418Z,13.77
2022-09-24T17:59:29.122Z,13.45
2022-09-24T18:03:30.781Z,11.90
2022-09-24T18:07:32.428Z,12.02
2022-09-24T18:11:48.351Z,11.35
2022-09-24T18:15:50.070Z,10.88
2022-09-24T18:19:51.737Z,11.60
2022-09-24T18:23:54.951Z,10.88
2022-09-24T18:28:00.754Z,11.27
2022-09-24T18:32:02.593Z,10.32
2022-09-24T18:36:06.686Z,11.27
2022-09-24T18:40:10.189Z,10.70
2022-09-24T18:44:11.996Z,10.80
2022-09-24T18:48:13.612Z,11.32
2022-09-24T18:52:15.337Z,10.93
2022-09-24T18:56:16.955Z,10.73
2022-09-24T19:00:37.455Z,10.57
2022-09-24T19:04:39.231Z,11.10
2022-09-24T19:08:41.052Z,10.80
2022-09-24T19:12:43.294Z,9.85
2022-09-24T19:16:45.972Z,10.70
2022-09-24T19:20:50.706Z,10.45
2022-09-24T19:24:52.376Z,10.18
2022-09-24T19:28:54.373Z,10.27
2022-09-24T19:32:57.528Z,10.88
2022-09-24T19:36:59.466Z,10.27
2022-09-24T19:41:19.036Z,11.35
2022-09-24T19:45:20.918Z,11.52
2022-09-24T19:49:23.583Z,10.25
2022-09-24T19:53:25.220Z,10.02
2022-09-24T19:57:27.140Z,10.90
2022-09-24T20:01:31.823Z,10.48
2022-09-24T20:05:33.823Z,11.00
2022-09-24T20:09:35.507Z,10.23
2022-09-24T20:13:39.083Z,10.18
2022-09-24T20:17:40.752Z,10.05
2022-09-24T20:21:42.416Z,10.05
2022-09-24T20:26:08.574Z,10.30
2022-09-24T20:30:10.631Z,10.27
2022-09-24T20:34:12.339Z,10.10
2022-09-24T20:38:14.032Z,10.18
2022-09-24T20:42:16.013Z,12.98
2022-09-24T20:46:23.821Z,12.32
2022-09-24T20:50:25.591Z,12.75
2022-09-24T20:54:28.615Z,14.70
2022-09-24T20:58:30.607Z,14.32
2022-09-24T21:02:34.225Z,16.50
2022-09-24T21:06:38.510Z,16.92
2022-09-24T21:10:40.152Z,16.50
2022-09-24T21:14:41.785Z,16.85
2022-09-24T21:18:46.570Z,16.98
2022-09-24T21:22:49.212Z,17.73
2022-09-24T21:26:50.796Z,19.27
2022-09-24T21:31:03.088Z,19.50
2022-09-24T21:35:05.255Z,19.98
2022-09-24T21:39:12.828Z,19.87
2022-09-24T21:43:14.459Z,20.23
2022-09-24T21:47:16.240Z,20.75
2022-09-24T21:51:22.114Z,20.62
2022-09-24T21:55:23.848Z,20.60
2022-09-24T21:59:44.010Z,19.60
2022-09-24T22:03:46.606Z,19.85
2022-09-24T22:07:48.432Z,18.48
2022-09-24T22:11:51.425Z,17.98
2022-09-24T22:15:53.114Z,18.52
2022-09-24T22:19:54.810Z,19.58
2022-09-24T22:23:56.448Z,18.00
2022-09-24T22:27:58.037Z,19.67
2022-09-24T22:31:59.711Z,19.23
2022-09-24T22:36:02.541Z,20.12
2022-09-24T22:40:04.513Z,20.25
2022-09-24T22:44:07.154Z,20.35
2022-09-24T22:48:09.499Z,19.50
2022-09-24T22:52:11.123Z,18.70
2022-09-24T22:56:19.340Z,18.90
2022-09-24T23:00:21.065Z,18.90
2022-09-24T23:04:22.699Z,18.35
2022-09-24T23:08:24.538Z,18.00
2022-09-24T23:12:31.133Z,17.40
2022-09-24T23:16:37.156Z,16.23
2022-09-24T23:20:38.806Z,16.37
2022-09-24T23:24:40.440Z,14.35
2022-09-24T23:28:42.700Z,14.68
2022-09-24T23:32:44.485Z,13.77
2022-09-24T23:36:46.248Z,12.27
2022-09-24T23:40:50.709Z,12.05
2022-09-24T23:44:52.430Z,13.40
2022-09-24T23:48:54.371Z,12.52
2022-09-24T23:52:56.019Z,12.55
2022-09-24T23:56:57.680Z,12.27
